DW6778 Weather Reports


Display with metric or nautical units.
time (UTC)temp
F
wind
direction
speed
MPH
gust
MPH
rain 1hr
in
rain 24hr
in
rain mn
in
humidity
%
barometer
mb
20190322123228 51 278 0.0 0.0 0.00 0.00 0.00 85 1018.1
20190322121543 51 285 0.0 0.0 0.00 0.00 0.00 84 1018.1
20190322114600 50 133 0.0 0.0 0.00 0.00 0.00 85 1017.6
20190322113013 50 132 0.0 0.0 0.00 0.00 0.00 84 1017.7
20190322111643 50 132 0.0 0.0 0.00 0.00 0.00 83 1017.4
20190322110053 51 132 0.0 0.0 0.00 0.00 0.00 83 1017.5
20190322104737 51 151 0.0 0.0 0.00 0.00 0.00 82 1017.6
20190322103138 52 150 0.0 0.0 0.00 0.00 0.00 82 1017.4
20190322100115 51 138 0.0 0.0 0.00 0.00 0.00 80 1017.2
20190322094533 51 190 0.0 0.0 0.00 0.00 0.00 80 1017.3
20190322093139 51 192 0.0 0.0 0.00 0.00 0.00 80 1017.4
20190322091522 51 253 0.0 0.0 0.00 0.00 0.00 78 1017.5
20190322090133 51 253 0.0 0.0 0.00 0.00 0.00 77 1017.8
20190322084621 51 252 0.0 0.0 0.00 0.00 0.00 77 1017.9
20190322081616 52 253 0.0 0.0 0.00 0.00 0.00 75 1018.2
20190322080055 53 253 0.0 0.0 0.00 0.00 0.00 74 1018.6
20190322074652 53 253 0.0 0.0 0.00 0.00 0.00 74 1018.9
20190322073051 52 255 0.0 0.0 0.00 0.00 0.00 75 1019.0
20190322070112 54 111 0.0 0.0 0.00 0.00 0.00 70 1019.0
20190322064517 54 111 0.0 0.0 0.00 0.00 0.00 69 1018.9
20190322063120 54 111 0.0 0.0 0.00 0.00 0.00 68 1018.8
20190322061533 55 111 0.0 0.0 0.00 0.00 0.00 66 1018.9
20190322060152 55 111 0.0 0.0 0.00 0.00 0.00 65 1019.1
20190322054557 56 111 0.0 0.0 0.00 0.00 0.00 63 1018.9
20190322051604 58 142 0.0 0.0 0.00 0.00 0.00 59 1019.2
20190322044609 60 124 0.0 1.0 0.00 0.00 0.00 54 1019.5
20190322043014 60 73 0.0 1.0 0.00 0.00 0.00 53 1019.5
20190322041648 61 108 0.0 3.0 0.00 0.00 0.00 52 1019.4
20190322040039 62 123 0.0 1.0 0.00 0.00 0.00 51 1019.4
20190322034507 62 105 0.0 1.0 0.00 0.00 0.00 50 1019.5
20190322033139 62 107 0.0 0.0 0.00 0.00 0.00 50 1019.4
20190322031525 63 114 0.0 1.0 0.00 0.00 0.00 49 1019.3
20190322024629 64 117 0.0 1.0 0.00 0.00 0.00 47 1018.9
20190322023009 65 105 0.0 1.0 0.00 0.00 0.00 48 1018.7
20190322021606 66 79 0.0 1.0 0.00 0.00 0.00 51 1018.7
20190322020045 66 119 0.0 1.0 0.00 0.00 0.00 53 1018.4
20190322014711 67 115 0.0 1.0 0.00 0.00 0.00 52 1018.2
20190322013045 67 141 0.0 1.0 0.00 0.00 0.00 50 1018.2
20190322010111 69 132 0.0 1.0 0.00 0.00 0.00 47 1017.9
20190322004539 70 186 0.0 1.0 0.00 0.00 0.00 46 1017.9
20190322003219 70 158 0.0 2.0 0.00 0.00 0.00 46 1018.3
20190322001639 71 113 0.0 1.0 0.00 0.00 0.00 44 1018.1
20190321234629 73 125 0.0 6.0 0.00 0.00 0.00 42 1017.7
20190321233030 72 96 0.0 5.0 0.00 0.00 0.00 43 1017.8
20190321230124 72 123 0.0 5.0 0.00 0.00 0.00 42 1018.2
20190321224507 73 117 0.0 3.0 0.00 0.00 0.00 42 1018.4
20190321223223 73 80 1.0 5.0 0.00 0.00 0.00 42 1018.7
20190321221522 73 61 1.0 5.0 0.00 0.00 0.00 41 1018.7
20190321214631 73 314 0.0 2.0 0.00 0.00 0.00 42 1019.4
20190321213008 73 73 0.0 3.0 0.00 0.00 0.00 43 1019.7
20190321211635 72 325 0.0 1.0 0.00 0.00 0.00 43 1019.8
20190321210027 72 360 0.0 3.0 0.00 0.00 0.00 45 1020.0
20190321204742 72 166 0.0 4.0 0.00 0.00 0.00 44 1020.3
20190321203042 71 162 0.0 8.0 0.00 0.00 0.00 44 1020.4
20190321200104 72 84 0.0 3.0 0.00 0.00 0.00 43 1021.0
20190321193125 71 101 0.0 2.0 0.00 0.00 0.00 46 1021.6
20190321191523 69 273 3.0 6.0 0.00 0.00 0.00 48 1022.0
20190321190128 68 312 0.0 3.0 0.00 0.00 0.00 51 1022.4
20190321184540 69 240 3.0 6.0 0.00 0.00 0.00 48 1022.7
20190321181629 68 193 0.0 1.0 0.00 0.00 0.00 49 1023.2
20190321180016 69 103 0.0 2.0 0.00 0.00 0.00 48 1023.4
20190321174636 67 20 0.0 4.0 0.00 0.00 0.00 50 1023.6
20190321173046 68 60 0.0 4.0 0.00 0.00 0.00 48 1023.8
20190321170056 66 214 0.0 4.0 0.00 0.00 0.00 52 1024.1
20190321164515 65 224 0.0 3.0 0.00 0.00 0.00 54 1024.4
20190321163136 64 158 0.0 1.0 0.00 0.00 0.00 55 1024.6
20190321161510 63 159 0.0 4.0 0.00 0.00 0.00 58 1024.7
20190321160102 61 210 0.0 1.0 0.00 0.00 0.00 59 1024.9
20190321154505 60 205 0.0 4.0 0.00 0.00 0.00 59 1025.1
20190321153116 59 225 0.0 3.0 0.00 0.00 0.00 60 1025.1
20190321151520 57 245 0.0 1.0 0.00 0.00 0.00 64 1025.2
20190321150239 55 245 0.0 0.0 0.00 0.00 0.00 68 1025.3
20190321144603 52 235 0.0 0.0 0.00 0.00 0.00 73 1025.3
20190321140019 46 333 0.0 0.0 0.00 0.00 0.00 82 1024.9
20190321134705 44 333 0.0 0.0 0.00 0.00 0.00 83 1025.0
20190321133050 43 343 0.0 0.0 0.00 0.00 0.00 84 1024.8
20190321130211 42 357 0.0 0.0 0.00 0.00 0.00 84 1024.5
20190321124554 42 346 0.0 0.0 0.00 0.00 0.00 86 1024.5